Elazig, Turkey
Current Conditions -  °F | °C
As of 5:50 PM on Thursday 29 Jan 2015 (Local Time) from LTCA Reporting Station
Broken Clouds Broken Clouds  
Wind Chill: 37°   Ceiling: 3300
Heat Index: 37°   Visibility: 6mi
Dew Point: 32°   Wind: 3mph
Humidity: 81%   Direction: 360°N
Pressure: 30.03"   Gusts: NA
Location:  38.68°N, 39.23°E
Report Text: LTCA 291550Z 36003KT 9999 FEW025 BKN033 BKN090 03/M00 Q1017 NOSIG
Loading
Personal Weather Stations






























Interactive Weather Map New forecast layout! Learn more

10-Day Weather Forecast

Advertisements
Track Severe Weather on mobile